Time;durP1;ratioP1;P1;durP2;ratioP2;P2;SDS_P1;SDS_P2;PMS_P1;PMS_P2;Temp;Humidity;BMP_temperature;BMP_pressure;BME280_temperature;BME280_humidity;BME280_pressure;Samples;Min_cycle;Max_cycle;Signal;HPM_P1;HPM_P2
2023/09/20 00:01:33;;;;;;;14.32;4.13;;;;;;;16.28;100.00;99955.13;4952959;29;20384;-73
2023/09/20 00:04:01;;;;;;;12.63;3.88;;;;;;;16.26;100.00;99951.84;4961222;28;20035;-74
2023/09/20 00:06:26;;;;;;;12.20;3.60;;;;;;;16.25;100.00;99942.63;4961574;28;20062;-74
2023/09/20 00:08:52;;;;;;;10.13;3.70;;;;;;;16.24;100.00;99943.81;4961158;28;20093;-74
2023/09/20 00:11:18;;;;;;;10.20;3.78;;;;;;;16.24;100.00;99946.59;4941809;29;20035;-74
2023/09/20 00:13:48;;;;;;;11.95;4.15;;;;;;;16.20;100.00;99934.44;4957482;28;20043;-73
2023/09/20 00:16:14;;;;;;;12.80;3.70;;;;;;;16.22;100.00;99942.50;4945310;28;20050;-74
2023/09/20 00:18:39;;;;;;;15.20;3.85;;;;;;;16.17;100.00;99935.13;4959040;28;20082;-74
2023/09/20 00:21:05;;;;;;;13.13;3.75;;;;;;;16.20;100.00;99933.63;4976991;28;20038;-74
2023/09/20 00:23:30;;;;;;;17.33;4.20;;;;;;;16.17;100.00;99928.72;4961058;28;20113;-74
2023/09/20 00:25:56;;;;;;;15.38;4.22;;;;;;;16.14;100.00;99933.03;4961156;28;20041;-73
2023/09/20 00:28:22;;;;;;;10.50;4.05;;;;;;;16.18;100.00;99927.53;4952264;28;20046;-74
2023/09/20 00:30:47;;;;;;;14.95;4.03;;;;;;;16.18;100.00;99931.16;4961194;28;20038;-74
2023/09/20 00:33:14;;;;;;;20.17;4.72;;;;;;;16.17;100.00;99937.13;4932062;28;20031;-73
2023/09/20 00:35:39;;;;;;;12.77;4.10;;;;;;;16.15;100.00;99929.06;4929342;28;20138;-73
2023/09/20 00:38:05;;;;;;;13.10;3.97;;;;;;;16.11;100.00;99928.13;4960829;28;20027;-74
2023/09/20 00:40:32;;;;;;;10.02;3.58;;;;;;;16.11;100.00;99928.13;4960763;28;20387;-73
2023/09/20 00:42:58;;;;;;;10.45;3.90;;;;;;;16.13;100.00;99920.19;4948054;28;20042;-73
2023/09/20 00:45:23;;;;;;;12.95;4.25;;;;;;;16.12;100.00;99920.53;4977019;28;20594;-74
2023/09/20 00:47:55;;;;;;;14.20;4.38;;;;;;;16.10;100.00;99920.88;4959220;28;20043;-74
2023/09/20 00:50:21;;;;;;;12.00;4.32;;;;;;;16.09;100.00;99916.44;4936785;29;20050;-74
2023/09/20 00:52:47;;;;;;;15.63;4.10;;;;;;;16.06;100.00;99914.31;4940963;28;20039;-74
2023/09/20 00:55:15;;;;;;;11.88;3.67;;;;;;;16.04;100.00;99913.84;4944694;28;20027;-74
2023/09/20 00:57:43;;;;;;;14.15;4.10;;;;;;;16.05;100.00;99909.91;4960951;28;20030;-74
2023/09/20 01:00:20;;;;;;;10.63;3.50;;;;;;;16.06;100.00;99914.31;4961089;28;20407;-74
2023/09/20 01:02:46;;;;;;;11.68;4.03;;;;;;;16.04;100.00;99911.84;4976889;28;20053;-74
2023/09/20 01:05:12;;;;;;;13.73;4.10;;;;;;;16.03;100.00;99899.03;4959863;28;20058;-74
2023/09/20 01:07:37;;;;;;;16.20;4.28;;;;;;;16.01;100.00;99898.56;4961155;29;20043;-73
2023/09/20 01:10:04;;;;;;;13.50;3.92;;;;;;;15.99;100.00;99891.66;4956514;28;20066;-74
2023/09/20 01:12:30;;;;;;;7.97;3.55;;;;;;;15.99;100.00;99897.25;4964388;28;20026;-73
2023/09/20 01:14:56;;;;;;;10.88;3.60;;;;;;;15.98;100.00;99895.63;4935079;28;20374;-74
2023/09/20 01:17:21;;;;;;;9.18;3.75;;;;;;;15.97;100.00;99891.19;4989298;28;20030;-74
2023/09/20 01:19:47;;;;;;;9.18;3.88;;;;;;;15.95;100.00;99885.94;5002931;28;20454;-74
2023/09/20 01:22:13;;;;;;;10.32;3.58;;;;;;;15.94;100.00;99878.72;5017362;28;20030;-74
2023/09/20 01:24:39;;;;;;;11.60;4.10;;;;;;;15.89;100.00;99875.31;5001650;28;20034;-74
2023/09/20 01:27:05;;;;;;;12.63;3.78;;;;;;;15.90;100.00;99871.34;4967076;28;20083;-73
2023/09/20 01:29:31;;;;;;;14.57;4.60;;;;;;;15.86;100.00;99872.03;4967064;28;20025;-74
2023/09/20 01:32:00;;;;;;;12.00;3.67;;;;;;;15.85;100.00;99872.34;4986512;28;20034;-74
2023/09/20 01:34:26;;;;;;;13.70;4.05;;;;;;;15.82;100.00;99868.28;4967165;28;20035;-73
2023/09/20 01:36:51;;;;;;;11.55;3.67;;;;;;;15.82;100.00;99864.66;4949102;28;20372;-74
2023/09/20 01:39:17;;;;;;;10.05;4.07;;;;;;;15.81;100.00;99863.03;4994176;28;20076;-73
2023/09/20 01:41:44;;;;;;;15.27;4.22;;;;;;;15.80;100.00;99861.41;4969425;28;20030;-74
2023/09/20 01:44:10;;;;;;;12.10;3.90;;;;;;;15.81;100.00;99851.81;4983352;28;20045;-73
2023/09/20 01:46:36;;;;;;;13.02;4.07;;;;;;;15.79;100.00;99843.75;4964501;28;20033;-73
2023/09/20 01:49:05;;;;;;;13.52;4.35;;;;;;;15.72;100.00;99842.72;4990357;28;20033;-73
2023/09/20 01:51:31;;;;;;;13.35;4.30;;;;;;;15.73;100.00;99845.16;4973734;28;20364;-73
2023/09/20 01:53:56;;;;;;;12.07;4.43;;;;;;;15.71;100.00;99841.91;4985848;28;20026;-73
2023/09/20 01:56:25;;;;;;;12.80;4.28;;;;;;;15.72;100.00;99842.72;4990336;28;20057;-72
2023/09/20 01:58:51;;;;;;;16.30;4.18;;;;;;;15.71;100.00;99841.06;4970593;28;20064;-73
2023/09/20 02:01:18;;;;;;;11.90;4.45;;;;;;;15.71;100.00;99838.25;4975314;28;20034;-73
2023/09/20 02:03:44;;;;;;;13.00;4.32;;;;;;;15.69;100.00;99833.03;4979131;28;20036;-73
2023/09/20 02:06:10;;;;;;;10.23;3.80;;;;;;;15.67;100.00;99826.91;4974499;28;20026;-73
2023/09/20 02:08:35;;;;;;;14.35;4.22;;;;;;;15.70;100.00;99819.84;4994362;28;20117;-74
2023/09/20 02:11:01;;;;;;;13.95;4.60;;;;;;;15.65;100.00;99820.81;4973334;28;20034;-73
2023/09/20 02:13:26;;;;;;;13.30;4.22;;;;;;;15.68;100.00;99814.56;4974752;28;20027;-73
2023/09/20 02:15:52;;;;;;;12.02;4.57;;;;;;;15.66;100.00;99808.50;4994339;28;20042;-73
2023/09/20 02:18:17;;;;;;;12.65;4.60;;;;;;;15.66;100.00;99816.88;4975034;28;20549;-73
2023/09/20 02:20:43;;;;;;;15.50;4.72;;;;;;;15.64;100.00;99806.03;4979647;28;20027;-74
2023/09/20 02:23:12;;;;;;;13.93;4.20;;;;;;;15.64;100.00;99805.22;4967000;28;20133;-73
2023/09/20 02:25:38;;;;;;;12.02;4.15;;;;;;;15.63;100.00;99800.78;4969701;28;20483;-73
2023/09/20 02:28:04;;;;;;;10.18;4.68;;;;;;;15.63;100.00;99790.41;4985003;28;20057;-72
2023/09/20 02:30:32;;;;;;;14.02;4.82;;;;;;;15.64;100.00;99797.63;4981901;28;20030;-73
2023/09/20 02:32:58;;;;;;;12.02;4.22;;;;;;;15.59;100.00;99789.44;4969594;28;20034;-73
2023/09/20 02:35:28;;;;;;;12.52;4.50;;;;;;;15.63;100.00;99786.78;4957703;28;20061;-73
2023/09/20 02:37:53;;;;;;;15.35;4.63;;;;;;;15.63;100.00;99784.81;4969836;28;20101;-73
2023/09/20 02:40:20;;;;;;;12.52;4.60;;;;;;;15.61;100.00;99781.53;4962782;28;20491;-74
2023/09/20 02:42:52;;;;;;;13.48;4.30;;;;;;;15.61;100.00;99772.31;4980778;28;20467;-73
2023/09/20 02:45:22;;;;;;;14.25;4.90;;;;;;;15.56;100.00;99780.94;4980298;28;20390;-74
2023/09/20 02:47:48;;;;;;;11.65;4.70;;;;;;;15.56;100.00;99769.72;4953184;28;20027;-73
2023/09/20 02:50:16;;;;;;;13.80;4.28;;;;;;;15.53;100.00;99762.84;4976472;28;20473;-74
2023/09/20 02:52:42;;;;;;;11.60;4.68;;;;;;;15.55;100.00;99768.91;4983596;28;20045;-73
2023/09/20 02:55:08;;;;;;;17.40;4.90;;;;;;;15.54;100.00;99763.66;4968429;28;20426;-73
2023/09/20 02:57:37;;;;;;;12.25;4.82;;;;;;;15.56;100.00;99755.75;4984068;28;20076;-73
2023/09/20 03:00:14;;;;;;;10.43;4.40;;;;;;;15.54;100.00;99752.47;4965609;28;20058;-73
2023/09/20 03:02:44;;;;;;;16.60;5.43;;;;;;;15.53;100.00;99745.25;4981988;28;20042;-73
2023/09/20 03:05:11;;;;;;;11.65;4.55;;;;;;;15.52;100.00;99741.63;4951647;28;20034;-73
2023/09/20 03:07:37;;;;;;;14.52;4.97;;;;;;;15.50;100.00;99743.13;4970454;28;20029;-72
2023/09/20 03:10:05;;;;;;;14.90;4.85;;;;;;;15.51;100.00;99719.56;4957098;28;20038;-73
2023/09/20 03:12:31;;;;;;;8.95;4.30;;;;;;;15.52;100.00;99726.81;4965660;28;20038;-74
2023/09/20 03:14:59;;;;;;;12.85;4.40;;;;;;;15.57;100.00;99737.78;4992957;28;20054;-74
2023/09/20 03:17:24;;;;;;;14.40;4.60;;;;;;;15.56;100.00;99717.38;4984711;28;20033;-74
2023/09/20 03:19:57;;;;;;;15.55;4.47;;;;;;;15.56;100.00;99711.78;4981518;28;20041;-74
2023/09/20 03:22:22;;;;;;;10.63;4.40;;;;;;;15.61;100.00;99713.53;4965580;28;20069;-73
2023/09/20 03:24:48;;;;;;;11.75;4.95;;;;;;;15.62;100.00;99701.16;4968157;28;20030;-73
2023/09/20 03:27:15;;;;;;;12.32;3.88;;;;;;;15.63;100.00;99697.22;4967096;28;20088;-74
2023/09/20 03:29:42;;;;;;;11.75;3.95;;;;;;;15.64;100.00;99690.44;4984689;28;20034;-74
2023/09/20 03:32:08;;;;;;;10.82;4.47;;;;;;;15.62;100.00;99681.56;4968057;28;20025;-74
2023/09/20 03:34:33;;;;;;;13.75;4.65;;;;;;;15.61;100.00;99685.56;5000617;28;20045;-73
2023/09/20 03:36:59;;;;;;;13.63;4.55;;;;;;;15.65;100.00;99686.47;4949110;28;20128;-72
2023/09/20 03:39:24;;;;;;;13.00;4.47;;;;;;;15.64;100.00;99682.88;4951991;28;20030;-74
2023/09/20 03:41:51;;;;;;;11.75;4.53;;;;;;;15.67;100.00;99670.16;4983406;28;20397;-73
2023/09/20 03:44:17;;;;;;;12.27;5.00;;;;;;;15.69;100.00;99681.88;4984254;28;20033;-74
2023/09/20 03:46:43;;;;;;;13.43;4.38;;;;;;;15.69;100.00;99679.06;4984165;28;20044;-73
2023/09/20 03:49:10;;;;;;;9.70;4.30;;;;;;;15.73;100.00;99666.00;4994172;28;20450;-74
2023/09/20 03:51:36;;;;;;;17.30;4.88;;;;;;;15.73;100.00;99666.00;4955159;28;20026;-73
2023/09/20 03:54:02;;;;;;;9.45;4.10;;;;;;;15.75;100.00;99660.06;4964732;28;20035;-74
2023/09/20 03:56:28;;;;;;;11.52;4.03;;;;;;;15.77;100.00;99652.13;4968158;28;20120;-73
2023/09/20 03:58:55;;;;;;;13.93;4.38;;;;;;;15.80;100.00;99651.44;4984196;28;20030;-74
2023/09/20 04:01:20;;;;;;;12.73;4.70;;;;;;;15.79;100.00;99647.78;4968192;28;20389;-75
2023/09/20 04:03:46;;;;;;;8.60;3.78;;;;;;;15.77;100.00;99644.53;4967620;28;20058;-74
2023/09/20 04:06:12;;;;;;;13.80;4.00;;;;;;;15.77;100.00;99644.53;5000125;28;20060;-73
2023/09/20 04:08:37;;;;;;;9.13;4.15;;;;;;;15.75;100.00;99638.47;4999931;28;20026;-73
2023/09/20 04:11:05;;;;;;;14.65;4.40;;;;;;;15.74;100.00;99638.81;4964321;28;20475;-73
2023/09/20 04:13:31;;;;;;;14.15;4.18;;;;;;;15.79;100.00;99627.38;4949426;28;20045;-74
2023/09/20 04:15:56;;;;;;;10.98;4.30;;;;;;;15.78;100.00;99620.16;4969842;28;20047;-72
2023/09/20 04:18:22;;;;;;;11.77;4.10;;;;;;;15.76;100.00;99626.09;4945302;28;20066;-73
2023/09/20 04:20:51;;;;;;;10.07;4.00;;;;;;;15.75;100.00;99630.06;4976965;28;20034;-72
2023/09/20 04:23:16;;;;;;;10.23;4.22;;;;;;;15.75;100.00;99630.06;4961289;28;20034;-73
2023/09/20 04:25:42;;;;;;;8.35;3.50;;;;;;;15.75;100.00;99621.69;4977097;28;20042;-74
2023/09/20 04:28:09;;;;;;;8.68;3.53;;;;;;;15.71;100.00;99629.16;4952156;28;20388;-74
2023/09/20 04:30:36;;;;;;;13.27;3.72;;;;;;;15.75;100.00;99618.06;4939354;29;20493;-74
2023/09/20 04:33:03;;;;;;;9.68;3.95;;;;;;;15.73;100.00;99610.00;4938978;28;20035;-72
2023/09/20 04:35:30;;;;;;;13.15;4.03;;;;;;;15.74;100.00;99622.84;4948518;28;20070;-74
2023/09/20 04:37:55;;;;;;;10.75;3.83;;;;;;;15.74;100.00;99611.66;4960832;28;20035;-73
2023/09/20 04:40:21;;;;;;;11.85;4.03;;;;;;;15.76;100.00;99612.09;4963263;28;20042;-73
2023/09/20 04:42:47;;;;;;;12.15;4.45;;;;;;;15.75;100.00;99607.69;4964332;28;20035;-74
2023/09/20 04:45:14;;;;;;;14.45;3.65;;;;;;;15.73;100.00;99604.41;4981873;28;20046;-73
2023/09/20 04:47:40;;;;;;;10.32;3.88;;;;;;;15.73;100.00;99604.41;4945331;28;20035;-73
2023/09/20 04:50:06;;;;;;;11.52;3.90;;;;;;;15.75;100.00;99606.88;4944431;29;20035;-73
2023/09/20 04:52:33;;;;;;;14.00;3.95;;;;;;;15.76;100.00;99598.09;4928678;28;20035;-75
2023/09/20 04:54:58;;;;;;;11.13;4.00;;;;;;;15.79;100.00;99602.19;4960301;28;20043;-73
2023/09/20 04:57:24;;;;;;;9.68;4.13;;;;;;;15.81;100.00;99589.47;4960172;28;20039;-74
2023/09/20 04:59:50;;;;;;;11.40;4.10;;;;;;;15.85;100.00;99598.81;4944264;29;20039;-73
2023/09/20 05:02:15;;;;;;;9.60;3.90;;;;;;;15.86;100.00;99591.22;4928380;28;20043;-73
2023/09/20 05:04:41;;;;;;;10.43;3.85;;;;;;;15.87;100.00;99601.25;4944422;29;20122;-72
2023/09/20 05:07:07;;;;;;;11.40;3.65;;;;;;;15.93;100.00;99599.03;4944022;28;20046;-72
2023/09/20 05:09:34;;;;;;;11.27;3.95;;;;;;;15.91;100.00;99605.00;4943964;29;20031;-72
2023/09/20 09:02:16;;;;;;;9.02;2.35;;;;;;;19.44;100.00;99501.44;4997284;28;20069;-73
2023/09/20 09:05:00;;;;;;;11.82;2.58;;;;;;;19.47;100.00;99495.03;4994452;28;20043;-73
2023/09/20 09:07:44;;;;;;;11.13;3.05;;;;;;;19.54;100.00;99495.16;4961570;28;20045;-72
2023/09/20 09:10:29;;;;;;;9.27;2.80;;;;;;;19.58;100.00;99489.56;4987204;28;20087;-71
2023/09/20 09:13:12;;;;;;;10.38;2.85;;;;;;;19.58;100.00;99498.03;4982188;28;20032;-72
2023/09/20 09:15:57;;;;;;;11.43;2.92;;;;;;;19.60;100.00;99490.81;4970440;28;20172;-71
2023/09/20 09:18:41;;;;;;;10.73;2.30;;;;;;;19.63;100.00;99494.88;4982753;28;20048;-72
2023/09/20 09:21:27;;;;;;;8.63;2.70;;;;;;;19.62;100.00;99488.44;5001032;28;20554;-72
2023/09/20 09:24:11;;;;;;;8.02;2.30;;;;;;;19.62;100.00;99484.81;4961540;28;20084;-73
2023/09/20 09:27:05;;;;;;;9.30;2.45;;;;;;;19.64;100.00;99488.09;4973876;28;20042;-73
2023/09/20 09:29:49;;;;;;;12.90;2.63;;;;;;;19.62;100.00;99487.66;5004267;28;20033;-73
2023/09/20 09:32:37;;;;;;;13.10;2.70;;;;;;;19.59;100.00;99488.41;5001343;28;20045;-73
2023/09/20 09:35:21;;;;;;;10.75;2.65;;;;;;;19.60;100.00;99475.94;4991019;28;20048;-73
2023/09/20 09:38:05;;;;;;;9.00;2.50;;;;;;;19.59;100.00;99477.94;4991100;28;20100;-73
2023/09/20 09:40:55;;;;;;;13.00;2.95;;;;;;;19.63;100.00;99478.00;5004323;28;20048;-73
2023/09/20 09:43:40;;;;;;;11.45;2.70;;;;;;;19.66;100.00;99470.81;4985721;28;20048;-74
2023/09/20 09:46:24;;;;;;;8.98;2.30;;;;;;;19.69;100.00;99462.41;4977211;28;20068;-71
2023/09/20 09:49:11;;;;;;;10.80;2.65;;;;;;;19.74;100.00;99462.09;4977543;28;20045;-72
2023/09/20 09:51:56;;;;;;;9.07;2.10;;;;;;;19.88;100.00;99455.03;4993782;28;20214;-72
2023/09/20 09:54:39;;;;;;;12.23;2.33;;;;;;;19.97;100.00;99441.44;4990237;28;20081;-74
2023/09/20 09:57:24;;;;;;;11.93;2.65;;;;;;;20.12;100.00;99445.28;4987648;28;20047;-74
2023/09/20 10:00:10;;;;;;;11.50;2.70;;;;;;;20.26;100.00;99440.59;5008325;28;20045;-72
2023/09/20 10:02:54;;;;;;;10.57;2.33;;;;;;;20.39;100.00;99451.59;4996040;28;20116;-73
2023/09/20 10:05:38;;;;;;;11.90;2.90;;;;;;;20.53;100.00;99440.50;5021419;28;20535;-73
2023/09/20 10:08:22;;;;;;;8.82;2.45;;;;;;;20.72;100.00;99439.47;5004147;28;20061;-72
2023/09/20 10:11:07;;;;;;;8.10;1.90;;;;;;;20.94;100.00;99441.28;5009776;28;20037;-74
2023/09/20 10:13:51;;;;;;;7.60;2.10;;;;;;;21.08;100.00;99440.59;5009530;28;20076;-74
2023/09/20 10:16:35;;;;;;;10.25;2.90;;;;;;;21.24;100.00;99443.16;4998802;28;20068;-74
2023/09/20 10:19:19;;;;;;;9.75;2.60;;;;;;;21.43;100.00;99439.28;5010579;28;20040;-73
2023/09/20 10:22:08;;;;;;;11.63;2.92;;;;;;;21.55;100.00;99436.13;4982801;28;20049;-73
2023/09/20 10:24:58;;;;;;;12.23;2.70;;;;;;;21.67;100.00;99434.16;5023960;28;20045;-74
2023/09/20 10:27:42;;;;;;;8.35;2.30;;;;;;;21.78;100.00;99435.84;5012655;28;20052;-73
2023/09/20 10:30:28;;;;;;;7.90;2.30;;;;;;;21.84;100.00;99422.13;5023137;28;20044;-73
2023/09/20 10:33:14;;;;;;;9.20;2.55;;;;;;;21.94;100.00;99415.72;5009908;28;20107;-74
2023/09/20 10:35:58;;;;;;;10.07;2.50;;;;;;;21.98;100.00;99429.88;5023686;28;20048;-74
2023/09/20 10:38:44;;;;;;;7.30;2.63;;;;;;;21.97;100.00;99437.53;5009060;28;20439;-73
2023/09/20 10:41:38;;;;;;;7.93;2.30;;;;;;;22.02;100.00;99430.72;5006287;28;20049;-72
2023/09/20 10:44:32;;;;;;;10.18;2.60;;;;;;;22.02;100.00;99423.03;5003704;28;20540;-73
2023/09/20 10:47:17;;;;;;;5.85;1.90;;;;;;;22.07;100.00;99430.31;5010183;28;20609;-73
2023/09/20 10:50:03;;;;;;;9.43;2.25;;;;;;;22.08;100.00;99424.25;4993553;28;20037;-73
2023/09/20 10:52:56;;;;;;;11.43;2.45;;;;;;;22.12;100.00;99420.63;5009851;28;20401;-73
2023/09/20 10:55:40;;;;;;;9.57;2.20;;;;;;;22.14;100.00;99418.22;4995149;28;20056;-73
2023/09/20 10:58:25;;;;;;;11.38;2.70;;;;;;;22.18;100.00;99419.09;4970210;28;20096;-72
2023/09/20 11:01:10;;;;;;;13.88;2.92;;;;;;;22.21;100.00;99406.97;4975076;28;20037;-73
2023/09/20 11:03:54;;;;;;;8.77;2.13;;;;;;;22.29;100.00;99397.31;4989685;28;20077;-74
2023/09/20 11:06:38;;;;;;;12.88;2.67;;;;;;;22.37;100.00;99384.81;5002746;28;20084;-73
2023/09/20 11:09:25;;;;;;;10.77;2.45;;;;;;;22.48;100.00;99388.44;5016447;28;20500;-73
2023/09/20 11:12:11;;;;;;;14.35;2.22;;;;;;;22.56;100.00;99394.09;4990148;28;20092;-73
2023/09/20 11:14:55;;;;;;;10.18;2.40;;;;;;;22.66;100.00;99390.47;4989336;28;20394;-74
2023/09/20 11:17:39;;;;;;;22.67;3.17;;;;;;;22.77;100.00;99370.69;4988898;28;20726;-74
2023/09/20 11:20:24;;;;;;;12.07;2.50;;;;;;;22.84;100.00;99365.81;5016604;28;20041;-73
2023/09/20 11:23:09;;;;;;;9.90;2.10;;;;;;;22.94;100.00;99362.16;4996877;28;20101;-73
2023/09/20 11:25:55;;;;;;;7.93;2.30;;;;;;;23.11;100.00;99359.75;5004331;28;20065;-73
2023/09/20 11:28:40;;;;;;;8.45;2.20;;;;;;;23.21;100.00;99353.28;5000902;28;20084;-72
2023/09/20 11:31:28;;;;;;;8.88;2.10;;;;;;;23.35;100.00;99356.06;5002562;28;20118;-73
2023/09/20 11:34:17;;;;;;;7.20;2.22;;;;;;;23.49;100.00;99348.75;5002619;28;20216;-72
2023/09/20 11:37:03;;;;;;;13.45;2.47;;;;;;;23.51;100.00;99346.28;5016113;28;20520;-73
2023/09/20 11:39:47;;;;;;;9.82;2.33;;;;;;;23.68;100.00;99344.59;4988478;28;20041;-73
2023/09/20 11:42:32;;;;;;;9.65;2.00;;;;;;;23.71;100.00;99338.97;5015946;28;20112;-73
2023/09/20 11:45:16;;;;;;;7.90;2.22;;;;;;;23.79;100.00;99340.56;4977224;28;20044;-73
2023/09/20 11:48:13;;;;;;;5.20;1.85;;;;;;;23.82;100.00;99331.22;5000186;28;20095;-70
2023/09/20 11:50:57;;;;;;;8.85;2.05;;;;;;;23.88;100.00;99331.59;4984108;28;20067;-71
2023/09/20 11:53:44;;;;;;;8.50;2.20;;;;;;;23.95;100.00;99322.25;4996488;28;20107;-70
2023/09/20 11:56:30;;;;;;;8.63;2.08;;;;;;;23.98;100.00;99318.56;5003142;28;20386;-70
2023/09/20 11:59:18;;;;;;;9.00;1.90;;;;;;;24.02;100.00;99330.72;4987047;28;20103;-71
2023/09/20 12:02:02;;;;;;;9.90;2.25;;;;;;;24.04;100.00;99305.56;4982830;28;20603;-71
2023/09/20 12:04:51;;;;;;;12.48;2.50;;;;;;;24.04;100.00;99319.75;4970584;28;20573;-70
2023/09/20 12:07:35;;;;;;;11.90;2.25;;;;;;;24.04;100.00;99309.25;4990337;28;20077;-71
2023/09/20 12:10:19;;;;;;;10.30;2.17;;;;;;;24.01;100.00;99304.38;4987918;28;20053;-71
2023/09/20 12:13:04;;;;;;;8.75;2.30;;;;;;;23.98;100.00;99299.53;5002224;28;20049;-70
2023/09/20 12:15:47;;;;;;;10.27;2.38;;;;;;;23.95;100.00;99306.03;4982830;28;20096;-70
2023/09/20 12:18:31;;;;;;;8.73;2.22;;;;;;;23.86;100.00;99309.31;4988193;28;20500;-69
2023/09/20 12:21:15;;;;;;;10.02;2.88;;;;;;;23.86;100.00;99317.03;5001686;28;20132;-69
2023/09/20 12:24:00;;;;;;;9.38;2.80;;;;;;;23.75;100.00;99317.06;4974150;28;20473;-69
2023/09/20 12:26:45;;;;;;;11.35;2.65;;;;;;;23.61;100.00;99323.59;4988195;28;20036;-68
2023/09/20 12:29:29;;;;;;;9.60;2.60;;;;;;;23.41;100.00;99311.13;4969304;28;20045;-68
2023/09/20 12:32:14;;;;;;;13.27;2.83;;;;;;;23.20;100.00;99295.78;4968865;28;20049;-69
2023/09/20 12:34:58;;;;;;;9.93;2.33;;;;;;;23.09;100.00;99282.91;4988434;28;20060;-69
2023/09/20 12:37:42;;;;;;;4.72;1.65;;;;;;;22.95;100.00;99304.34;5001794;28;20076;-69
2023/09/20 12:40:27;;;;;;;9.30;2.25;;;;;;;22.92;100.00;99293.00;5004880;28;20037;-69
2023/09/20 12:43:11;;;;;;;7.00;2.08;;;;;;;22.87;100.00;99288.59;4987651;28;20069;-68
2023/09/20 12:45:57;;;;;;;7.90;2.08;;;;;;;22.86;100.00;99289.78;4968709;28;20123;-69
2023/09/20 12:48:44;;;;;;;7.97;2.10;;;;;;;22.92;100.00;99273.19;4972552;28;20053;-69
2023/09/20 12:51:28;;;;;;;6.80;1.73;;;;;;;22.97;100.00;99270.78;4987668;28;20401;-69
2023/09/20 12:54:12;;;;;;;7.25;1.88;;;;;;;23.04;100.00;99267.16;5001694;28;20452;-68
2023/09/20 12:56:57;;;;;;;16.95;2.78;;;;;;;23.02;100.00;99258.25;5009313;28;20076;-69
2023/09/20 12:59:41;;;;;;;19.02;2.40;;;;;;;23.13;100.00;99244.88;5008759;28;20098;-69
2023/09/20 13:02:27;;;;;;;8.65;2.08;;;;;;;23.18;100.00;99243.66;4998263;28;20120;-69
2023/09/20 13:05:12;;;;;;;7.72;2.03;;;;;;;23.17;100.00;99244.84;5021701;28;20044;-69
2023/09/20 13:07:57;;;;;;;8.38;2.35;;;;;;;23.22;100.00;99233.09;5000572;28;20052;-69
2023/09/20 13:10:41;;;;;;;7.55;1.98;;;;;;;23.26;100.00;99208.38;5011051;28;20048;-68
2023/09/20 13:13:26;;;;;;;9.45;2.22;;;;;;;23.30;100.00;99209.19;5024832;28;20044;-69
2023/09/20 13:16:10;;;;;;;8.82;1.90;;;;;;;23.30;100.00;99209.19;5017802;28;20080;-69
2023/09/20 13:18:54;;;;;;;7.70;2.10;;;;;;;23.32;100.00;99198.25;5007807;28;20110;-68
2023/09/20 13:21:38;;;;;;;11.27;2.10;;;;;;;23.37;100.00;99189.34;5004988;28;20493;-69
2023/09/20 13:24:23;;;;;;;7.05;2.00;;;;;;;23.47;100.00;99189.69;4979668;28;20041;-70
2023/09/20 13:27:06;;;;;;;7.88;2.10;;;;;;;23.51;100.00;99176.28;5010606;28;20048;-69
2023/09/20 13:29:50;;;;;;;8.07;2.00;;;;;;;23.55;100.00;99174.25;4991196;28;20068;-70
2023/09/20 13:32:35;;;;;;;13.18;2.70;;;;;;;23.60;100.00;99174.63;5024634;28;20043;-69
2023/09/20 13:35:20;;;;;;;15.55;2.50;;;;;;;23.70;100.00;99175.75;5039267;28;20044;-70
2023/09/20 13:38:04;;;;;;;10.82;2.20;;;;;;;23.77;100.00;99170.09;4995725;28;20040;-69
2023/09/20 13:40:49;;;;;;;8.55;2.25;;;;;;;23.80;100.00;99163.56;5004341;28;20037;-69
2023/09/20 13:43:33;;;;;;;8.10;2.15;;;;;;;23.76;100.00;99159.94;4997597;28;20113;-72
2023/09/20 13:46:18;;;;;;;9.00;2.28;;;;;;;23.81;100.00;99151.00;4993222;28;20068;-69
2023/09/20 13:49:02;;;;;;;7.60;1.90;;;;;;;23.81;100.00;99153.03;5024411;28;20114;-69
2023/09/20 13:51:47;;;;;;;7.28;2.28;;;;;;;23.79;100.00;99136.47;5011531;28;20096;-69
2023/09/20 13:54:32;;;;;;;8.63;2.20;;;;;;;23.79;100.00;99147.81;5009955;28;20048;-69
2023/09/20 13:57:16;;;;;;;8.57;2.03;;;;;;;23.81;100.00;99145.34;5009737;28;20052;-69
2023/09/20 14:00:03;;;;;;;7.88;2.20;;;;;;;23.86;100.00;99135.59;4980306;28;20196;-69
2023/09/20 14:02:47;;;;;;;9.27;2.05;;;;;;;23.88;100.00;99141.66;5024074;28;20064;-69
2023/09/20 14:05:31;;;;;;;6.40;1.95;;;;;;;23.92;100.00;99130.28;5021205;28;20497;-69
2023/09/20 14:08:15;;;;;;;6.72;1.80;;;;;;;23.92;100.00;99127.44;5024096;28;20048;-68
2023/09/20 14:11:00;;;;;;;9.95;1.50;;;;;;;23.96;100.00;99114.84;4991183;28;20041;-69
2023/09/20 14:13:45;;;;;;;7.50;2.00;;;;;;;23.98;100.00;99103.88;4993093;28;20091;-69
2023/09/20 14:16:29;;;;;;;8.60;1.73;;;;;;;24.01;100.00;99107.91;5006004;28;20563;-68
2023/09/20 14:19:15;;;;;;;6.13;1.60;;;;;;;24.05;100.00;99086.00;5023415;28;20037;-69
2023/09/20 14:21:59;;;;;;;6.68;1.63;;;;;;;24.09;100.00;99095.28;5006658;28;20192;-69
2023/09/20 14:24:43;;;;;;;4.10;1.73;;;;;;;24.15;100.00;99102.09;5023617;28;20465;-69
2023/09/20 14:27:27;;;;;;;4.50;1.45;;;;;;;24.19;100.00;99085.06;5021771;28;20171;-69
2023/09/20 14:30:15;;;;;;;6.13;1.58;;;;;;;24.16;100.00;99098.06;5031625;28;20052;-69
2023/09/20 14:32:59;;;;;;;5.05;1.48;;;;;;;24.20;100.00;99081.78;5006151;28;20052;-69
2023/09/20 14:35:44;;;;;;;3.85;1.15;;;;;;;24.22;100.00;99081.38;4995459;28;20044;-68
2023/09/20 14:38:27;;;;;;;7.90;1.67;;;;;;;24.14;100.00;99077.81;5020731;28;20048;-69
2023/09/20 14:41:11;;;;;;;8.90;1.52;;;;;;;24.11;100.00;99072.19;5022751;28;20095;-69
2023/09/20 14:43:56;;;;;;;8.27;1.40;;;;;;;24.13;100.00;99075.41;5002928;28;20497;-69
2023/09/20 14:46:40;;;;;;;6.38;1.55;;;;;;;24.09;100.00;99083.94;4993833;28;20052;-70
2023/09/20 14:49:24;;;;;;;8.98;1.70;;;;;;;24.12;100.00;99085.13;4991358;28;20106;-69
2023/09/20 14:52:09;;;;;;;6.35;1.45;;;;;;;24.09;100.00;99070.56;5008859;28;20612;-69
2023/09/20 14:54:53;;;;;;;5.47;1.65;;;;;;;24.04;100.00;99061.69;5002303;28;20555;-69
2023/09/20 14:57:37;;;;;;;6.25;1.73;;;;;;;24.02;100.00;99050.00;4996581;28;20053;-70
2023/09/20 15:00:22;;;;;;;7.28;1.80;;;;;;;24.00;100.00;99041.09;4981342;28;20053;-69
2023/09/20 15:03:06;;;;;;;6.53;1.73;;;;;;;24.00;100.00;99039.06;4997590;28;20040;-69
2023/09/20 15:05:50;;;;;;;6.43;1.50;;;;;;;23.89;100.00;99032.69;4996881;28;20753;-70
2023/09/20 15:08:34;;;;;;;4.43;2.17;;;;;;;23.86;100.00;99023.00;4982072;28;20076;-69
2023/09/20 15:11:18;;;;;;;6.78;1.55;;;;;;;23.79;100.00;99023.09;5006756;28;20044;-69
2023/09/20 15:14:03;;;;;;;6.50;2.00;;;;;;;23.77;100.00;99031.19;5005841;28;20072;-69
2023/09/20 15:16:47;;;;;;;12.05;1.73;;;;;;;23.70;100.00;99019.88;5014198;28;20043;-69
2023/09/20 15:19:31;;;;;;;5.47;1.70;;;;;;;23.65;100.00;99017.50;4988617;28;20513;-69
2023/09/20 15:22:15;;;;;;;5.97;1.38;;;;;;;23.56;100.00;99022.84;5008395;28;20137;-69
2023/09/20 15:25:00;;;;;;;6.13;2.08;;;;;;;23.51;100.00;99026.91;5008154;28;20045;-69
2023/09/20 15:27:45;;;;;;;6.95;1.70;;;;;;;23.42;100.00;99018.09;5015162;28;20052;-69
2023/09/20 15:30:29;;;;;;;9.02;1.50;;;;;;;23.28;100.00;99007.69;4994365;28;20033;-69
2023/09/20 15:33:18;;;;;;;6.20;1.30;;;;;;;23.22;100.00;99040.50;5008592;28;20440;-69
2023/09/20 15:36:06;;;;;;;7.38;1.90;;;;;;;23.15;100.00;99035.72;5022913;28;20045;-69
2023/09/20 15:38:50;;;;;;;8.73;2.22;;;;;;;23.10;100.00;99038.97;5001608;28;20147;-69
2023/09/20 15:41:35;;;;;;;7.18;1.75;;;;;;;23.05;100.00;99047.91;5008108;28;20120;-69
2023/09/20 15:44:19;;;;;;;7.47;1.80;;;;;;;23.00;100.00;99039.03;5007733;28;20076;-69
2023/09/20 15:47:03;;;;;;;5.13;1.60;;;;;;;22.96;100.00;99036.25;5002132;28;20072;-69
2023/09/20 15:49:47;;;;;;;10.68;1.77;;;;;;;22.91;100.00;99031.78;5014599;28;20500;-69
2023/09/20 15:52:32;;;;;;;8.10;2.28;;;;;;;22.87;100.00;99039.50;5008065;28;20063;-69
2023/09/20 15:55:16;;;;;;;8.18;2.05;;;;;;;22.86;100.00;99035.03;4986335;28;20048;-69